Time;durP1;ratioP1;P1;durP2;ratioP2;P2;SDS_P1;SDS_P2;PMS_P1;PMS_P2;Temp;Humidity;BMP_temperature;BMP_pressure;BME280_temperature;BME280_humidity;BME280_pressure;Samples;Min_cycle;Max_cycle;Signal;HPM_P1;HPM_P2
2023/06/05 00:00:30;;;;;;;1999.90;999.90;;;;;;;22.50;40.72;102457.88;5058311;28;20055;-75
2023/06/05 00:02:55;;;;;;;1999.90;999.90;;;;;;;22.43;40.69;102451.00;5056285;28;20068;-75
2023/06/05 00:05:21;;;;;;;1999.90;999.90;;;;;;;22.58;40.09;102438.09;5035121;28;20557;-74
2023/06/05 00:07:46;;;;;;;1999.90;999.90;;;;;;;22.64;39.87;102433.41;5037109;28;20048;-74
2023/06/05 00:10:13;;;;;;;1999.90;999.90;;;;;;;22.47;40.30;102431.31;5035832;28;20488;-74
2023/06/05 00:12:38;;;;;;;1999.90;999.90;;;;;;;22.43;39.94;102440.34;5034774;28;20036;-75
2023/06/05 00:15:04;;;;;;;1999.90;999.90;;;;;;;22.88;39.27;102436.09;5035904;28;20473;-74
2023/06/05 00:17:30;;;;;;;1999.90;999.90;;;;;;;22.88;39.17;102438.78;5036174;28;20062;-75
2023/06/05 00:19:58;;;;;;;1999.90;999.90;;;;;;;21.91;41.57;102442.06;5035103;28;20029;-74
2023/06/05 00:22:25;;;;;;;1999.90;999.90;;;;;;;22.17;40.93;102438.53;5060136;28;20025;-74
2023/06/05 00:24:50;;;;;;;1999.90;999.90;;;;;;;23.03;38.86;102434.66;5044550;28;20534;-75
2023/06/05 00:27:16;;;;;;;1999.90;999.90;;;;;;;22.12;41.08;102441.38;5034981;28;20029;-74
2023/06/05 00:29:41;;;;;;;1999.90;999.90;;;;;;;22.09;40.56;102444.16;5035201;28;20179;-74
2023/06/05 00:32:07;;;;;;;1999.90;999.90;;;;;;;22.56;39.74;102434.59;5052503;28;20037;-74
2023/06/05 00:34:32;;;;;;;1999.90;999.90;;;;;;;22.52;39.47;102445.34;5034911;28;20171;-75
2023/06/05 00:36:58;;;;;;;1999.90;999.90;;;;;;;22.13;40.35;102443.13;5052965;28;20068;-74
2023/06/05 00:39:23;;;;;;;1999.90;999.90;;;;;;;22.62;39.31;102437.91;5034118;28;20029;-74
2023/06/05 00:41:48;;;;;;;1999.90;999.90;;;;;;;22.11;40.55;102441.44;5053201;28;20506;-75
2023/06/05 00:44:14;;;;;;;1999.90;999.90;;;;;;;21.83;41.72;102440.53;5052125;28;20025;-74
2023/06/05 00:46:41;;;;;;;1999.90;999.90;;;;;;;21.63;41.88;102442.97;5034667;28;20119;-75
2023/06/05 00:49:08;;;;;;;1999.90;999.90;;;;;;;22.31;40.50;102436.31;5038268;28;20028;-75
2023/06/05 00:51:33;;;;;;;1999.90;999.90;;;;;;;21.52;42.02;102441.47;5054268;28;20131;-74
2023/06/05 00:54:00;;;;;;;1999.90;999.90;;;;;;;21.50;42.31;102445.97;5035680;28;20131;-74
2023/06/05 00:56:25;;;;;;;1999.90;999.90;;;;;;;21.17;42.15;102435.41;5035077;28;20029;-74
2023/06/05 00:58:52;;;;;;;1999.90;999.90;;;;;;;22.40;39.91;102437.78;5034369;28;20393;-74
2023/06/05 01:01:20;;;;;;;1999.90;999.90;;;;;;;22.19;40.59;102432.25;5034337;28;20063;-74
2023/06/05 01:03:47;;;;;;;1999.90;999.90;;;;;;;22.41;40.26;102431.56;5052521;28;20025;-74
2023/06/05 01:06:13;;;;;;;1999.90;999.90;;;;;;;21.35;42.19;102430.47;5034444;28;20040;-74
2023/06/05 01:08:39;;;;;;;1999.90;999.90;;;;;;;21.43;42.21;102436.44;5071109;28;20044;-74
2023/06/05 01:11:40;;;;;;;1999.90;999.90;;;;;;;21.75;41.53;102433.69;5055078;28;20059;-74
2023/06/05 01:14:27;;;;;;;1999.90;999.90;;;;;;;21.37;42.46;102433.94;5054572;28;20036;-74
2023/06/05 01:16:53;;;;;;;1999.90;999.90;;;;;;;22.49;40.15;102434.81;5072435;28;20024;-74
2023/06/05 01:19:20;;;;;;;1999.90;999.90;;;;;;;22.19;40.50;102434.91;5042664;28;20033;-74
2023/06/05 01:21:47;;;;;;;1999.90;999.90;;;;;;;22.26;40.68;102429.41;5048868;28;20031;-74
2023/06/05 01:24:13;;;;;;;1999.90;999.90;;;;;;;21.98;41.40;102427.63;5054814;28;20012;-74
2023/06/05 01:27:07;;;;;;;1999.90;999.90;;;;;;;21.84;41.66;102420.09;5054361;28;20082;-74
2023/06/05 01:29:44;;;;;;;1999.90;999.90;;;;;;;21.54;41.95;102421.94;5015327;28;20041;-74
2023/06/05 01:32:19;;;;;;;1999.90;999.90;;;;;;;21.38;42.66;102427.72;5059767;28;20039;-74
2023/06/05 01:34:48;;;;;;;1999.90;999.90;;;;;;;22.66;39.55;102420.03;5053086;28;20115;-74
2023/06/05 01:37:18;;;;;;;1999.90;999.90;;;;;;;21.82;41.57;102421.97;5062721;28;20037;-73
2023/06/05 01:39:46;;;;;;;1999.90;999.90;;;;;;;21.42;42.27;102429.38;5033248;28;20025;-75
2023/06/05 01:42:13;;;;;;;1999.90;999.90;;;;;;;21.68;41.71;102422.41;5033816;28;20112;-75
2023/06/05 01:44:40;;;;;;;1999.90;999.90;;;;;;;21.74;41.69;102424.84;5033838;28;20456;-74
2023/06/05 01:47:07;;;;;;;1999.90;999.90;;;;;;;21.63;41.89;102422.53;5065643;28;20029;-74
2023/06/05 01:49:33;;;;;;;1999.90;999.90;;;;;;;21.86;40.88;102423.59;5033753;28;20021;-74
2023/06/05 01:51:59;;;;;;;1999.90;999.90;;;;;;;21.71;41.64;102424.06;5055635;28;20029;-74
2023/06/05 01:54:26;;;;;;;1999.90;999.90;;;;;;;22.28;40.15;102416.88;5051327;28;20044;-74
2023/06/05 01:56:52;;;;;;;1999.90;999.90;;;;;;;22.05;40.65;102417.66;5041144;28;20718;-74
2023/06/05 01:59:18;;;;;;;1999.90;999.90;;;;;;;22.32;39.90;102410.53;5033602;28;20028;-74
2023/06/05 02:01:46;;;;;;;1999.90;999.90;;;;;;;21.54;41.30;102406.00;5035303;28;20424;-74
2023/06/05 02:04:18;;;;;;;1999.90;999.90;;;;;;;21.24;42.02;102414.84;5034225;28;20082;-74
2023/06/05 02:06:44;;;;;;;1999.90;999.90;;;;;;;21.31;42.34;102415.53;5049014;28;20036;-75
2023/06/05 02:09:10;;;;;;;1999.90;999.90;;;;;;;21.57;41.97;102412.09;5048486;28;20086;-74
2023/06/05 02:11:37;;;;;;;1999.90;999.90;;;;;;;22.00;40.87;102399.19;5044128;28;20016;-74
2023/06/05 02:14:12;;;;;;;1999.90;999.90;;;;;;;22.20;40.31;102396.72;5041622;28;20036;-75
2023/06/05 02:16:38;;;;;;;1999.90;999.90;;;;;;;22.04;40.43;102400.81;5033682;28;20128;-74
2023/06/05 02:19:04;;;;;;;1999.90;999.90;;;;;;;21.23;41.92;102401.59;5033277;28;20180;-74
2023/06/05 02:21:32;;;;;;;1999.90;999.90;;;;;;;21.48;41.54;102407.88;5051572;28;20049;-74
2023/06/05 02:23:58;;;;;;;1999.90;999.90;;;;;;;21.02;42.39;102399.53;5052433;28;20078;-74
2023/06/05 02:26:23;;;;;;;1999.90;999.90;;;;;;;22.05;40.53;102407.91;5045459;28;20020;-74
2023/06/05 02:28:49;;;;;;;1999.90;999.90;;;;;;;20.89;42.87;102392.81;5051083;28;20542;-74
2023/06/05 02:31:15;;;;;;;1999.90;999.90;;;;;;;21.88;41.25;102395.13;5052528;28;20033;-74
2023/06/05 02:33:41;;;;;;;1999.90;999.90;;;;;;;21.55;41.59;102397.97;5034842;28;20501;-74
2023/06/05 02:36:06;;;;;;;1999.90;999.90;;;;;;;21.25;42.47;102395.28;5032774;28;20119;-74
2023/06/05 02:38:32;;;;;;;1999.90;999.90;;;;;;;21.61;41.06;102403.09;5033338;28;20025;-74
2023/06/05 02:40:57;;;;;;;1999.90;999.90;;;;;;;21.88;40.60;102411.09;5050084;28;20115;-74
2023/06/05 02:43:23;;;;;;;1999.90;999.90;;;;;;;21.98;40.71;102401.91;5063822;28;20439;-74
2023/06/05 02:45:48;;;;;;;1999.90;999.90;;;;;;;21.55;41.45;102397.97;5048131;28;20028;-74
2023/06/05 02:48:14;;;;;;;1999.90;999.90;;;;;;;21.86;40.55;102403.16;5033294;28;20024;-75
2023/06/05 02:50:39;;;;;;;1999.90;999.90;;;;;;;21.43;41.37;102400.97;5051224;28;20035;-74
2023/06/05 02:53:05;;;;;;;1999.90;999.90;;;;;;;21.02;42.74;102393.34;5036737;28;20029;-73
2023/06/05 02:55:32;;;;;;;1999.90;999.90;;;;;;;21.66;41.40;102394.97;5067513;28;20495;-73
2023/06/05 02:57:58;;;;;;;1999.90;999.90;;;;;;;21.68;41.18;102395.81;5070235;28;20032;-74
2023/06/05 03:00:25;;;;;;;1999.90;999.90;;;;;;;21.75;40.86;102394.66;5073224;28;20024;-74
2023/06/05 03:02:51;;;;;;;1999.90;999.90;;;;;;;21.54;40.95;102390.03;5073669;28;20028;-74
2023/06/05 03:05:27;;;;;;;1999.90;999.90;;;;;;;20.73;43.53;102386.19;5090739;28;20503;-74
2023/06/05 03:07:55;;;;;;;1999.90;999.90;;;;;;;21.64;41.11;102381.72;5072197;28;20020;-75
2023/06/05 03:10:21;;;;;;;1999.90;999.90;;;;;;;21.63;40.85;102387.94;5072749;28;20452;-74
2023/06/05 03:12:47;;;;;;;1999.90;999.90;;;;;;;21.21;41.69;102383.00;5081027;28;20050;-74
2023/06/05 03:15:13;;;;;;;1999.90;999.90;;;;;;;21.78;40.52;102375.94;5055785;28;20029;-74
2023/06/05 03:17:39;;;;;;;1999.90;999.90;;;;;;;21.10;42.25;102380.69;5052143;28;20073;-74
2023/06/05 03:20:09;;;;;;;1999.90;999.90;;;;;;;21.23;41.57;102385.66;5052640;28;20494;-73
2023/06/05 03:22:35;;;;;;;1999.90;999.90;;;;;;;21.60;40.76;102373.88;5061054;28;20023;-74
2023/06/05 03:25:00;;;;;;;1999.90;999.90;;;;;;;21.65;40.73;102372.81;5073107;28;20016;-74
2023/06/05 03:27:26;;;;;;;1999.90;999.90;;;;;;;21.73;40.49;102369.88;5053095;28;20480;-74
2023/06/05 03:29:51;;;;;;;1999.90;999.90;;;;;;;21.78;40.36;102373.28;5070656;28;20123;-74
2023/06/05 03:32:17;;;;;;;1999.90;999.90;;;;;;;21.72;40.68;102373.50;5090834;28;20020;-74
2023/06/05 03:34:42;;;;;;;1999.90;999.90;;;;;;;21.24;41.63;102382.03;5072387;28;20111;-73
2023/06/05 03:37:08;;;;;;;1999.90;999.90;;;;;;;21.61;40.68;102378.25;5090161;28;20021;-74
2023/06/05 03:39:35;;;;;;;1999.90;999.90;;;;;;;21.50;41.13;102371.47;5071483;28;20553;-73
2023/06/05 03:42:00;;;;;;;1999.90;999.90;;;;;;;20.83;42.29;102372.59;5054135;28;20024;-74
2023/06/05 03:44:26;;;;;;;1999.90;999.90;;;;;;;21.43;40.84;102372.59;5067179;28;20031;-74
2023/06/05 03:46:52;;;;;;;1999.90;999.90;;;;;;;21.06;41.84;102379.06;5072348;28;20024;-74
2023/06/05 03:49:18;;;;;;;1999.90;999.90;;;;;;;21.48;40.96;102375.97;5071779;28;20020;-73
2023/06/05 03:51:44;;;;;;;1999.90;999.90;;;;;;;21.18;41.28;102378.69;5085262;28;20067;-74
2023/06/05 03:54:10;;;;;;;1999.90;999.90;;;;;;;21.04;41.65;102370.22;5064968;28;20068;-74
2023/06/05 03:56:38;;;;;;;1999.90;999.90;;;;;;;21.56;40.76;102377.56;5069278;28;20043;-73
2023/06/05 03:59:18;;;;;;;1999.90;999.90;;;;;;;21.00;41.85;102373.91;5051551;28;20048;-74
2023/06/05 04:01:43;;;;;;;1999.90;999.90;;;;;;;20.68;42.09;102383.69;5034246;28;20031;-74
2023/06/05 04:04:08;;;;;;;1999.90;999.90;;;;;;;20.44;42.98;102378.09;5053804;28;20020;-74
2023/06/05 04:06:36;;;;;;;1999.90;999.90;;;;;;;20.45;42.64;102377.16;5043294;28;20063;-74
2023/06/05 04:09:09;;;;;;;1999.90;999.90;;;;;;;20.98;42.02;102381.06;5035652;28;20025;-74
2023/06/05 04:11:35;;;;;;;1999.90;999.90;;;;;;;21.17;41.76;102381.34;5035487;28;20028;-73
2023/06/05 04:14:00;;;;;;;1999.90;999.90;;;;;;;21.00;41.58;102379.22;5058654;28;20081;-74
2023/06/05 04:16:25;;;;;;;1999.90;999.90;;;;;;;20.77;42.38;102378.09;5040644;28;20084;-73
2023/06/05 04:18:51;;;;;;;1999.90;999.90;;;;;;;21.56;40.31;102380.22;5034806;28;20111;-73
2023/06/05 04:21:16;;;;;;;1999.90;999.90;;;;;;;20.95;42.14;102382.03;5067659;28;20102;-73
2023/06/05 04:23:42;;;;;;;1999.90;999.90;;;;;;;21.00;41.71;102379.22;5073248;28;20025;-72
2023/06/05 04:26:07;;;;;;;1999.90;999.90;;;;;;;21.57;40.34;102385.50;5054991;28;20116;-74
2023/06/05 04:28:34;;;;;;;1999.90;999.90;;;;;;;21.78;39.84;102388.38;5053383;28;20091;-74
2023/06/05 04:31:01;;;;;;;1999.90;999.90;;;;;;;21.23;40.99;102385.66;5040241;28;20067;-73
2023/06/05 04:33:27;;;;;;;1999.90;999.90;;;;;;;21.14;41.24;102382.34;5034746;28;20496;-74
2023/06/05 04:35:53;;;;;;;1999.90;999.90;;;;;;;20.28;43.82;102384.75;5052067;28;20055;-74
2023/06/05 04:38:20;;;;;;;1999.90;999.90;;;;;;;21.05;41.59;102381.72;5054645;28;20032;-73
2023/06/05 04:40:50;;;;;;;1422.83;682.73;;;;;;;20.21;42.31;102394.63;5071553;28;20115;-73
2023/06/05 04:43:15;;;;;;;1999.90;999.90;;;;;;;21.15;41.84;102394.69;5055188;28;20035;-74
2023/06/05 04:45:41;;;;;;;1999.90;999.90;;;;;;;23.31;37.68;102390.97;5034843;28;20029;-74
2023/06/05 04:48:07;;;;;;;1999.90;999.90;;;;;;;22.68;37.95;102391.50;5058691;28;20040;-73
2023/06/05 04:50:33;;;;;;;1999.90;999.90;;;;;;;23.42;36.80;102394.06;5054421;28;20027;-73
2023/06/05 04:52:59;;;;;;;1999.90;999.90;;;;;;;24.41;35.69;102400.69;5054502;28;20032;-73
2023/06/05 04:55:24;;;;;;;1999.90;999.90;;;;;;;22.99;37.50;102390.38;5037652;28;20131;-74
2023/06/05 04:57:51;;;;;;;1999.90;999.90;;;;;;;24.11;36.18;102395.75;5052493;28;20025;-73
2023/06/05 05:00:17;;;;;;;1999.90;999.90;;;;;;;23.75;35.76;102406.13;5034293;28;20100;-73
2023/06/05 05:02:43;;;;;;;1999.90;999.90;;;;;;;24.48;35.02;102402.16;5034442;28;20125;-74
2023/06/05 05:05:09;;;;;;;1999.90;999.90;;;;;;;23.69;35.82;102408.09;5051776;28;20060;-73
2023/06/05 05:07:35;;;;;;;1999.90;999.90;;;;;;;23.46;36.79;102406.34;5033764;28;20059;-71
2023/06/05 05:10:01;;;;;;;1999.90;999.90;;;;;;;23.04;37.36;102409.75;5035040;28;20524;-74
2023/06/05 05:12:26;;;;;;;1999.90;999.90;;;;;;;23.03;37.05;102408.00;5034503;28;20021;-73
2023/06/05 05:14:52;;;;;;;1999.90;999.90;;;;;;;22.60;37.77;102404.25;5038518;28;20017;-74
2023/06/05 05:17:19;;;;;;;1999.90;999.90;;;;;;;21.43;40.56;102417.81;5035789;28;20477;-74
2023/06/05 05:19:45;;;;;;;1999.90;999.90;;;;;;;22.43;38.79;102408.38;5033732;28;20029;-73
2023/06/05 05:22:10;;;;;;;1999.90;999.90;;;;;;;21.82;39.67;102406.84;5033939;28;20067;-74
2023/06/05 05:24:36;;;;;;;1999.90;999.90;;;;;;;22.75;38.24;102398.38;5034164;28;20460;-74
2023/06/05 05:27:02;;;;;;;1999.90;999.90;;;;;;;21.89;40.15;102402.19;5034432;28;20116;-73
2023/06/05 05:29:27;;;;;;;1999.90;999.90;;;;;;;22.66;38.78;102404.03;5052052;28;20028;-74
2023/06/05 05:31:53;;;;;;;1999.90;999.90;;;;;;;22.42;38.68;102406.66;5044572;28;20097;-72
2023/06/05 05:34:18;;;;;;;1999.90;999.90;;;;;;;23.29;37.20;102403.50;5042494;28;20016;-73
2023/06/05 05:36:44;;;;;;;1999.90;999.90;;;;;;;22.86;38.31;102409.50;5033758;28;20028;-73
2023/06/05 05:39:10;;;;;;;1999.90;999.90;;;;;;;22.03;40.24;102412.38;5052084;28;20029;-73
2023/06/05 05:41:35;;;;;;;1999.90;999.90;;;;;;;22.35;39.63;102410.44;5032693;28;20031;-73
2023/06/05 05:44:01;;;;;;;1999.90;999.90;;;;;;;22.57;39.83;102404.38;5052010;28;20033;-73
2023/06/05 05:46:26;;;;;;;1999.90;999.90;;;;;;;22.47;39.60;102404.69;5034686;28;20048;-74
2023/06/05 05:48:52;;;;;;;1999.90;999.90;;;;;;;22.17;40.36;102407.47;5037598;28;20118;-73
2023/06/05 05:51:17;;;;;;;1999.90;999.90;;;;;;;22.49;39.94;102400.19;5042609;28;20013;-73
2023/06/05 05:53:42;;;;;;;1999.90;999.90;;;;;;;22.86;38.46;102396.19;5053065;28;20063;-74
2023/06/05 05:56:08;;;;;;;1999.90;999.90;;;;;;;22.60;39.59;102398.91;5074022;28;20140;-74
2023/06/05 05:58:33;;;;;;;1999.90;999.90;;;;;;;23.50;37.60;102397.31;5064513;28;20028;-74
2023/06/05 06:00:59;;;;;;;1999.90;999.90;;;;;;;21.66;40.45;102405.59;5068240;28;20480;-74
2023/06/05 06:03:28;;;;;;;1999.90;999.90;;;;;;;23.10;38.83;102401.50;5053776;28;20102;-74
2023/06/05 06:05:54;;;;;;;1999.90;999.90;;;;;;;23.06;38.91;102407.88;5054259;28;20027;-73
2023/06/05 06:08:20;;;;;;;1999.90;999.90;;;;;;;23.21;38.40;102404.66;5053537;28;20020;-74
2023/06/05 06:10:45;;;;;;;1999.90;999.90;;;;;;;23.56;37.42;102412.19;5054726;28;20496;-74
2023/06/05 06:13:11;;;;;;;1999.90;999.90;;;;;;;22.60;39.28;102415.78;5062105;28;20020;-74
2023/06/05 06:15:38;;;;;;;1999.90;999.90;;;;;;;24.12;37.04;102413.50;5082397;28;20058;-74
2023/06/05 06:18:05;;;;;;;1999.90;999.90;;;;;;;25.14;36.36;102406.34;5066171;28;20031;-74
2023/06/05 06:20:31;;;;;;;1999.90;999.90;;;;;;;25.24;34.69;102407.63;5089757;28;20040;-74
2023/06/05 06:22:57;;;;;;;1999.90;999.90;;;;;;;26.83;32.44;102412.25;5064987;28;20024;-75
2023/06/05 06:25:28;;;;;;;1999.90;999.90;;;;;;;26.64;32.71;102406.06;5068643;28;20031;-74
2023/06/05 06:27:54;;;;;;;1999.90;999.90;;;;;;;27.61;31.22;102408.81;5054772;28;20032;-74
2023/06/05 06:30:19;;;;;;;1999.90;999.90;;;;;;;28.12;30.11;102408.56;5071684;28;20028;-74
2023/06/05 06:32:45;;;;;;;1999.90;999.90;;;;;;;28.42;29.90;102410.34;5080408;28;20472;-74
2023/06/05 06:35:13;;;;;;;1999.90;999.90;;;;;;;29.47;27.38;102414.56;5052910;28;20082;-74
2023/06/05 06:37:39;;;;;;;1999.90;999.90;;;;;;;30.67;26.83;102410.09;5052760;28;20498;-74
2023/06/05 06:40:10;;;;;;;1999.90;999.90;;;;;;;30.31;27.03;102414.34;5056602;28;20033;-73
2023/06/05 06:42:37;;;;;;;1999.90;999.90;;;;;;;29.75;27.55;102412.72;5072440;28;20036;-74
2023/06/05 06:45:04;;;;;;;1999.90;999.90;;;;;;;28.79;28.19;102418.00;5055561;28;20016;-74
2023/06/05 06:47:30;;;;;;;1999.90;999.90;;;;;;;27.33;30.10;102420.25;5061062;28;20028;-73
2023/06/05 06:49:56;;;;;;;1999.90;999.90;;;;;;;31.17;25.70;102413.69;5057658;28;20037;-74
2023/06/05 06:52:22;;;;;;;1999.90;999.90;;;;;;;30.86;25.64;102413.19;5071262;28;20490;-74
2023/06/05 06:54:47;;;;;;;1999.90;999.90;;;;;;;31.18;25.32;102414.56;5073383;28;20037;-74
2023/06/05 06:57:13;;;;;;;1999.90;999.90;;;;;;;31.75;24.77;102423.84;5062246;28;20383;-74
2023/06/05 06:59:41;;;;;;;1999.90;999.90;;;;;;;32.41;24.77;102426.91;5088236;28;20035;-74
2023/06/05 07:02:11;;;;;;;1999.90;999.90;;;;;;;32.73;24.02;102425.38;5072903;28;20035;-74
2023/06/05 07:04:38;;;;;;;1999.90;999.90;;;;;;;30.93;25.62;102421.72;5071471;28;20024;-73
2023/06/05 07:07:03;;;;;;;1999.90;999.90;;;;;;;30.89;25.15;102426.47;5068205;28;20028;-73
2023/06/05 07:09:29;;;;;;;1999.90;999.90;;;;;;;33.00;24.60;102430.38;5067497;28;20084;-73
2023/06/05 07:11:54;;;;;;;1999.90;999.90;;;;;;;32.67;23.42;102431.22;5077141;28;20579;-74
2023/06/05 07:14:22;;;;;;;1999.90;999.90;;;;;;;32.90;23.44;102424.00;5064497;28;20047;-74
2023/06/05 07:16:48;;;;;;;1999.90;999.90;;;;;;;33.07;23.92;102428.03;5051916;28;20020;-74
2023/06/05 07:19:15;;;;;;;1999.90;999.90;;;;;;;34.70;22.07;102428.84;5059935;28;20101;-73
2023/06/05 07:21:40;;;;;;;1999.90;999.90;;;;;;;34.38;22.18;102435.25;5080571;28;20020;-73
2023/06/05 07:24:06;;;;;;;1999.90;999.90;;;;;;;34.05;21.81;102424.44;5072574;28;20047;-73
2023/06/05 07:26:32;;;;;;;1999.90;999.90;;;;;;;34.79;20.95;102422.59;5041103;28;20027;-74
2023/06/05 07:28:57;;;;;;;1999.90;999.90;;;;;;;32.30;23.63;102435.88;5076639;28;20045;-74
2023/06/05 07:31:23;;;;;;;1999.90;999.90;;;;;;;33.26;22.34;102422.00;5084695;28;20031;-73
2023/06/05 07:33:48;;;;;;;1999.90;999.90;;;;;;;33.35;22.82;102423.13;5098646;28;20480;-74
2023/06/05 07:36:13;;;;;;;1999.90;999.90;;;;;;;34.09;22.24;102422.34;5072111;28;20556;-73
2023/06/05 07:38:39;;;;;;;1999.90;999.90;;;;;;;34.02;22.29;102427.44;5072775;28;20029;-73
2023/06/05 07:41:06;;;;;;;1999.90;999.90;;;;;;;33.67;23.34;102425.81;5080360;28;20115;-73
2023/06/05 07:43:31;;;;;;;1999.90;999.90;;;;;;;33.94;22.39;102425.38;5078135;28;20111;-73
2023/06/05 07:45:57;;;;;;;1999.90;999.90;;;;;;;31.96;24.53;102419.50;5076372;28;20102;-73
2023/06/05 07:48:22;;;;;;;1999.90;999.90;;;;;;;32.83;22.91;102423.63;5081184;28;20075;-73
2023/06/05 07:50:48;;;;;;;1999.90;999.90;;;;;;;32.48;24.03;102421.88;5073271;28;20118;-73
2023/06/05 07:53:13;;;;;;;1999.90;999.90;;;;;;;32.46;24.27;102418.44;5055824;28;20036;-73
2023/06/05 07:55:39;;;;;;;1999.90;999.90;;;;;;;34.02;22.25;102421.13;5036170;28;20759;-73
2023/06/05 07:58:04;;;;;;;1999.90;999.90;;;;;;;32.97;23.42;102426.09;5043986;28;20444;-73
2023/06/05 08:00:30;;;;;;;1999.90;999.90;;;;;;;32.75;23.74;102416.13;5072343;28;20118;-73
2023/06/05 08:02:57;;;;;;;1999.90;999.90;;;;;;;32.78;23.34;102423.13;5054089;28;20028;-72
2023/06/05 08:05:22;;;;;;;1999.90;999.90;;;;;;;32.48;23.71;102421.88;5054106;28;20032;-73
2023/06/05 08:07:48;;;;;;;1999.90;999.90;;;;;;;33.96;22.53;102420.69;5052743;28;20021;-73
2023/06/05 08:10:13;;;;;;;1999.90;999.90;;;;;;;35.50;20.66;102416.22;5036805;28;20035;-73
2023/06/05 08:12:40;;;;;;;1999.90;999.90;;;;;;;35.23;21.40;102409.59;5056824;28;20405;-74
2023/06/05 08:15:06;;;;;;;1999.90;999.90;;;;;;;34.02;22.52;102424.72;5053566;28;20034;-73
2023/06/05 08:17:31;;;;;;;1999.90;999.90;;;;;;;34.99;20.67;102418.97;5032778;28;20153;-73
2023/06/05 08:19:57;;;;;;;1999.90;999.90;;;;;;;34.58;21.97;102419.91;5044573;28;20119;-73
2023/06/05 08:22:23;;;;;;;1999.90;999.90;;;;;;;34.85;21.29;102422.06;5061111;28;20052;-74
2023/06/05 08:24:49;;;;;;;1999.90;999.90;;;;;;;34.13;21.51;102421.09;5034094;28;20025;-73
2023/06/05 08:27:16;;;;;;;1999.90;999.90;;;;;;;34.93;21.59;102419.53;5034160;28;20115;-73
2023/06/05 08:29:41;;;;;;;1999.90;999.90;;;;;;;35.54;20.37;102417.66;5034394;28;20120;-74
2023/06/05 08:32:06;;;;;;;1999.90;999.90;;;;;;;35.98;20.23;102409.06;5033896;28;20968;-73
2023/06/05 08:34:32;;;;;;;1999.90;999.90;;;;;;;33.84;22.39;102416.31;5034090;28;20029;-74
2023/06/05 08:36:58;;;;;;;1999.90;999.90;;;;;;;33.97;22.62;102411.53;5050953;28;20081;-73
2023/06/05 08:39:31;;;;;;;1999.90;999.90;;;;;;;34.84;21.26;102409.47;5034361;28;20029;-74
2023/06/05 08:42:00;;;;;;;1999.90;999.90;;;;;;;33.64;22.28;102416.09;5044541;28;20024;-72
2023/06/05 08:44:27;;;;;;;1999.90;999.90;;;;;;;32.24;23.28;102414.69;5038275;28;20052;-73
2023/06/05 08:47:00;;;;;;;1999.90;999.90;;;;;;;32.32;23.70;102411.41;5034120;28;20370;-73
2023/06/05 08:49:31;;;;;;;1999.90;999.90;;;;;;;32.63;23.67;102403.53;5051868;28;20025;-73
2023/06/05 08:52:02;;;;;;;1999.90;999.90;;;;;;;34.03;21.79;102404.72;5044460;28;20033;-73
2023/06/05 08:54:37;;;;;;;1999.90;999.90;;;;;;;34.97;21.29;102409.25;5041709;28;20449;-76
2023/06/05 08:57:04;;;;;;;1999.90;999.90;;;;;;;36.33;19.89;102397.56;5062400;28;20024;-74
2023/06/05 08:59:30;;;;;;;1999.90;999.90;;;;;;;34.82;21.33;102414.19;5052295;28;20112;-74
2023/06/05 09:01:56;;;;;;;1999.90;999.90;;;;;;;32.78;23.15;102413.19;5055723;28;20166;-75
2023/06/05 09:04:23;;;;;;;1999.90;999.90;;;;;;;32.82;23.47;102413.78;5056235;28;20021;-75
2023/06/05 09:06:53;;;;;;;1999.90;999.90;;;;;;;33.37;22.55;102413.00;5039003;28;20036;-74
2023/06/05 09:09:18;;;;;;;1999.90;999.90;;;;;;;31.81;24.24;102409.88;5059124;28;20029;-74
2023/06/05 09:11:44;;;;;;;1999.90;999.90;;;;;;;33.80;22.90;102404.84;5045774;28;20029;-74
2023/06/05 09:14:10;;;;;;;1999.90;999.90;;;;;;;33.70;22.70;102408.44;5052338;28;20433;-74
2023/06/05 09:16:43;;;;;;;1999.90;999.90;;;;;;;36.06;20.83;102400.19;5039741;28;20033;-74
2023/06/05 09:19:12;;;;;;;1999.90;999.90;;;;;;;33.40;22.42;102399.19;5038953;28;20111;-74
2023/06/05 09:21:37;;;;;;;1999.90;999.90;;;;;;;34.51;21.48;102403.31;5036420;28;20071;-74
2023/06/05 09:24:07;;;;;;;1999.90;999.90;;;;;;;34.32;20.79;102404.94;5052968;28;20485;-74
2023/06/05 09:26:46;;;;;;;1999.90;999.90;;;;;;;34.36;21.88;102401.97;5071849;28;20480;-74
2023/06/05 09:29:12;;;;;;;1999.90;999.90;;;;;;;33.65;22.28;102395.28;5054606;28;20139;-74
2023/06/05 09:31:44;;;;;;;1999.90;999.90;;;;;;;34.38;21.52;102403.53;5048082;28;20115;-74
2023/06/05 09:34:10;;;;;;;1999.90;999.90;;;;;;;33.77;22.52;102390.69;5053231;28;20029;-75
2023/06/05 09:36:45;;;;;;;1999.90;999.90;;;;;;;34.81;22.04;102388.03;5053620;28;20054;-74
2023/06/05 09:39:15;;;;;;;1999.90;999.90;;;;;;;34.51;21.12;102389.75;5071861;28;20108;-74
2023/06/05 09:41:44;;;;;;;1999.90;999.90;;;;;;;35.46;20.66;102382.16;5046280;28;20032;-75
2023/06/05 09:44:10;;;;;;;1999.90;999.90;;;;;;;35.32;20.74;102373.47;5051398;28;20024;-75
2023/06/05 09:46:49;;;;;;;1999.90;999.90;;;;;;;35.49;20.52;102390.06;5050592;28;20613;-73
2023/06/05 09:49:15;;;;;;;1999.90;999.90;;;;;;;36.33;20.10;102392.13;5052812;28;20036;-74
2023/06/05 09:51:42;;;;;;;1999.90;999.90;;;;;;;35.64;20.77;102385.03;5052213;28;20521;-74
2023/06/05 09:54:09;;;;;;;1999.90;999.90;;;;;;;36.71;19.87;102383.09;5076778;28;20102;-74
2023/06/05 09:56:41;;;;;;;1999.90;999.90;;;;;;;34.73;20.71;102380.53;5066759;28;20040;-73
2023/06/05 09:59:09;;;;;;;1999.90;999.90;;;;;;;35.35;20.38;102376.88;5053319;28;20090;-74
2023/06/05 10:01:40;;;;;;;1999.90;999.90;;;;;;;34.75;21.33;102391.28;5062073;28;20051;-74
2023/06/05 10:04:08;;;;;;;1999.90;999.90;;;;;;;34.75;21.22;102377.72;5091031;28;20032;-73
2023/06/05 10:06:38;;;;;;;1999.90;999.90;;;;;;;33.79;21.93;102386.00;5071032;28;20034;-74
2023/06/05 10:09:03;;;;;;;1999.90;999.90;;;;;;;35.03;21.03;102391.53;5090914;28;20511;-73
2023/06/05 10:11:29;;;;;;;1999.90;999.90;;;;;;;34.97;21.07;102382.94;5072559;28;20032;-77
2023/06/05 10:13:59;;;;;;;1999.90;999.90;;;;;;;34.13;21.84;102383.97;5056247;28;20039;-76
2023/06/05 10:16:26;;;;;;;1999.90;999.90;;;;;;;34.15;21.20;102386.53;5053166;28;20051;-75
2023/06/05 10:18:51;;;;;;;1999.90;999.90;;;;;;;34.82;21.38;102384.34;5071168;28;20125;-76
2023/06/05 10:21:18;;;;;;;1999.90;999.90;;;;;;;35.92;19.62;102377.88;5063011;28;20119;-77
2023/06/05 10:23:48;;;;;;;1999.90;999.90;;;;;;;34.71;20.54;102376.28;5073497;28;20590;-76
2023/06/05 10:26:53;;;;;;;1999.90;999.90;;;;;;;35.60;20.20;102379.03;5068688;28;20020;-77
2023/06/05 10:29:56;;;;;;;1999.90;999.90;;;;;;;34.08;22.58;102369.09;5049823;28;20040;-76
2023/06/05 10:32:28;;;;;;;1999.90;999.90;;;;;;;34.02;21.37;102375.03;5056089;28;20472;-76
2023/06/05 10:35:06;;;;;;;1999.90;999.90;;;;;;;33.99;21.63;102377.03;5053148;28;20025;-75
2023/06/05 10:37:37;;;;;;;1999.90;999.90;;;;;;;33.75;20.96;102369.09;5053168;28;20028;-76
2023/06/05 10:40:04;;;;;;;1999.90;999.90;;;;;;;34.62;21.92;102372.50;5053316;28;20075;-76
2023/06/05 10:42:30;;;;;;;1999.90;999.90;;;;;;;34.86;21.46;102369.47;5085660;28;20399;-76
2023/06/05 10:44:56;;;;;;;1999.90;999.90;;;;;;;34.50;22.31;102363.63;5072992;28;20444;-77
2023/06/05 10:47:33;;;;;;;1999.90;999.90;;;;;;;35.75;20.22;102368.56;5073981;28;20434;-76